createdAt,value
2019-03-22T00:02:26.487Z,100890.98
2019-03-22T00:04:54.737Z,100890.27
2019-03-22T00:07:22.978Z,100882.62
2019-03-22T00:09:51.217Z,100880.86
2019-03-22T00:12:19.677Z,100874.80
2019-03-22T00:14:47.919Z,100877.65
2019-03-22T00:17:16.155Z,100871.91
2019-03-22T00:19:44.405Z,100875.03
2019-03-22T00:22:12.954Z,100879.28
2019-03-22T00:24:41.197Z,100878.15
2019-03-22T00:27:16.327Z,100873.86
2019-03-22T00:29:39.629Z,100869.27
2019-03-22T00:32:07.862Z,100878.73
2019-03-22T00:34:36.113Z,100875.16
2019-03-22T00:37:04.342Z,100870.31
2019-03-22T00:39:32.582Z,100857.92
2019-03-22T00:42:00.821Z,100858.61
2019-03-22T00:44:29.456Z,100852.49
2019-03-22T00:46:57.639Z,100850.97
2019-03-22T00:49:26.159Z,100855.97
2019-03-22T00:51:54.404Z,100852.52
2019-03-22T00:54:22.635Z,100853.84
2019-03-22T00:56:51.191Z,100852.97
2019-03-22T00:59:19.427Z,100847.87
2019-03-22T01:01:47.672Z,100846.77
2019-03-22T01:04:15.912Z,100848.95
2019-03-22T01:06:44.151Z,100844.09
2019-03-22T01:09:12.390Z,100843.34
2019-03-22T01:11:40.954Z,100840.57
2019-03-22T01:14:09.189Z,100841.73
2019-03-22T01:16:37.654Z,100839.43
2019-03-22T01:19:05.892Z,100836.63
2019-03-22T01:21:34.135Z,100839.69
2019-03-22T01:24:02.653Z,100841.60
2019-03-22T01:26:30.899Z,100841.60
2019-03-22T01:28:59.130Z,100837.39
2019-03-22T01:31:27.420Z,100842.89
2019-03-22T01:33:55.841Z,100841.49
2019-03-22T01:36:24.079Z,100836.64
2019-03-22T01:38:52.310Z,100840.73
2019-03-22T01:41:20.788Z,100836.30
2019-03-22T01:43:49.016Z,100838.98
2019-03-22T01:46:17.486Z,100831.59
2019-03-22T01:48:45.723Z,100836.48
2019-03-22T01:51:14.195Z,100834.06
2019-03-22T01:53:42.435Z,100836.20
2019-03-22T01:56:10.678Z,100830.72
2019-03-22T01:58:39.149Z,100835.83
2019-03-22T02:01:07.379Z,100836.72
2019-03-22T02:03:35.612Z,100835.83
2019-03-22T02:06:03.856Z,100832.67
2019-03-22T02:08:32.319Z,100823.22
2019-03-22T02:11:00.563Z,100831.91
2019-03-22T02:13:29.026Z,100839.44
2019-03-22T02:15:57.441Z,100845.19
2019-03-22T02:18:25.679Z,100847.23
2019-03-22T02:20:54.154Z,100844.55
2019-03-22T02:23:22.389Z,100837.78
2019-03-22T02:25:50.639Z,100842.00
2019-03-22T02:28:19.098Z,100842.00
2019-03-22T02:30:47.348Z,100838.04
2019-03-22T02:33:15.591Z,100832.42
2019-03-22T02:35:44.010Z,100832.30
2019-03-22T02:38:12.244Z,100831.14
2019-03-22T02:40:40.493Z,100837.28
2019-03-22T02:43:08.837Z,100833.70
2019-03-22T02:45:37.060Z,100839.45
2019-03-22T02:48:05.275Z,100828.33
2019-03-22T02:50:33.746Z,100822.71
2019-03-22T02:53:01.988Z,100822.20
2019-03-22T02:55:30.232Z,100830.13
2019-03-22T02:57:58.468Z,100830.37
2019-03-22T03:00:26.935Z,100831.82
2019-03-22T03:02:55.412Z,100821.60
2019-03-22T03:05:23.886Z,100821.34
2019-03-22T03:07:52.118Z,100817.64
2019-03-22T03:10:20.355Z,100825.44
2019-03-22T03:12:48.595Z,100824.41
2019-03-22T03:15:18.023Z,100823.01
2019-03-22T03:17:46.547Z,100822.50
2019-03-22T03:20:18.382Z,100828.50
2019-03-22T03:22:46.925Z,100825.05
2019-03-22T03:25:16.404Z,100822.63
2019-03-22T03:27:44.808Z,100808.87
2019-03-22T03:30:18.252Z,100823.42
2019-03-22T03:32:46.506Z,100822.41
2019-03-22T03:35:14.825Z,100820.10
2019-03-22T03:37:43.285Z,100823.94
2019-03-22T03:40:13.150Z,100827.00
2019-03-22T03:42:41.402Z,100818.44
2019-03-22T03:45:32.372Z,100815.51
2019-03-22T03:48:02.013Z,100819.72
2019-03-22T03:50:30.343Z,100823.68
2019-03-22T03:52:58.630Z,100812.70
2019-03-22T03:55:27.926Z,100812.70
2019-03-22T03:57:56.167Z,100815.80
2019-03-22T04:00:24.397Z,100800.34
2019-03-22T04:02:52.941Z,100816.94
2019-03-22T04:05:21.656Z,100816.42
2019-03-22T04:07:49.898Z,100810.68
2019-03-22T04:10:18.138Z,100812.72
2019-03-22T04:12:46.668Z,100806.37
2019-03-22T04:15:14.979Z,100797.69
2019-03-22T04:17:43.453Z,100797.69
2019-03-22T04:20:11.690Z,100806.73
2019-03-22T04:22:39.945Z,100811.67
2019-03-22T04:25:08.430Z,100783.88
2019-03-22T04:27:36.665Z,100803.63
2019-03-22T04:30:08.476Z,100800.86
2019-03-22T04:32:36.718Z,100797.53
2019-03-22T04:35:08.761Z,100800.59
2019-03-22T04:37:36.998Z,100797.79
2019-03-22T04:40:11.149Z,100786.08
2019-03-22T04:42:39.397Z,100798.33
2019-03-22T04:45:07.707Z,100798.04
2019-03-22T04:47:36.566Z,100799.31
2019-03-22T04:50:05.838Z,100790.26
2019-03-22T04:52:34.247Z,100791.02
2019-03-22T04:55:02.653Z,100787.32
2019-03-22T04:57:31.163Z,100798.96
2019-03-22T04:59:59.404Z,100802.28
2019-03-22T05:02:28.414Z,100799.47
2019-03-22T05:04:56.826Z,100803.30
2019-03-22T05:07:25.068Z,100802.27
2019-03-22T05:09:53.479Z,100793.74
2019-03-22T05:12:22.288Z,100801.50
2019-03-22T05:14:50.796Z,100806.09
2019-03-22T05:17:19.206Z,100808.39
2019-03-22T05:19:50.550Z,100806.22
2019-03-22T05:22:19.259Z,100811.10
2019-03-22T05:24:48.268Z,100805.98
2019-03-22T05:27:16.844Z,100816.33
2019-03-22T05:29:46.650Z,100813.13
2019-03-22T05:32:16.057Z,100817.20
2019-03-22T05:34:44.294Z,100823.45
2019-03-22T05:37:12.537Z,100806.88
2019-03-22T05:39:40.776Z,100822.59
2019-03-22T05:42:09.255Z,100824.88
2019-03-22T05:44:37.495Z,100825.63
2019-03-22T05:47:05.799Z,100830.61
2019-03-22T05:49:34.050Z,100830.61
2019-03-22T05:52:02.294Z,100834.70
2019-03-22T05:54:30.763Z,100837.09
2019-03-22T05:56:59.002Z,100844.25
2019-03-22T05:59:27.267Z,100847.69
2019-03-22T06:01:55.515Z,100847.69
2019-03-22T06:04:23.749Z,100850.88
2019-03-22T06:06:51.995Z,100852.94
2019-03-22T06:09:20.236Z,100851.92
2019-03-22T06:11:48.726Z,100845.42
2019-03-22T06:14:17.244Z,100850.37
2019-03-22T06:16:45.474Z,100854.46
2019-03-22T06:19:13.716Z,100861.10
2019-03-22T06:21:42.191Z,100863.53
2019-03-22T06:24:10.430Z,100860.19
2019-03-22T06:26:38.917Z,100871.05
2019-03-22T06:29:07.382Z,100870.41
2019-03-22T06:31:35.622Z,100862.72
2019-03-22T06:34:04.029Z,100862.34
2019-03-22T06:36:32.271Z,100867.97
2019-03-22T06:39:00.818Z,100867.30
2019-03-22T06:41:29.066Z,100867.42
2019-03-22T06:43:57.306Z,100862.14
2019-03-22T06:46:25.557Z,100869.72
2019-03-22T06:48:53.794Z,100870.95
2019-03-22T06:51:22.047Z,100866.72
2019-03-22T06:53:50.284Z,100864.86
2019-03-22T06:56:18.528Z,100872.72
2019-03-22T06:58:47.040Z,100865.76
2019-03-22T07:01:15.312Z,100875.92
2019-03-22T07:03:43.520Z,100875.38
2019-03-22T07:06:11.769Z,100870.57
2019-03-22T07:08:40.001Z,100877.58
2019-03-22T07:11:08.249Z,100872.38
2019-03-22T07:13:36.807Z,100877.91
2019-03-22T07:16:05.395Z,100882.59
2019-03-22T07:18:33.623Z,100879.67
2019-03-22T07:21:01.873Z,100881.98
2019-03-22T07:23:30.102Z,100883.01
2019-03-22T07:25:58.354Z,100884.53
2019-03-22T07:28:26.901Z,100881.06
2019-03-22T07:30:55.146Z,100893.14
2019-03-22T07:33:23.459Z,100888.00
2019-03-22T07:35:51.637Z,100891.89
2019-03-22T07:38:20.193Z,100890.25
2019-03-22T07:40:48.465Z,100889.49
2019-03-22T07:43:16.711Z,100889.11
2019-03-22T07:45:44.951Z,100893.92
2019-03-22T07:48:13.418Z,100890.84
2019-03-22T07:50:41.682Z,100892.55
2019-03-22T07:53:09.918Z,100892.62
2019-03-22T07:55:38.438Z,100886.98
2019-03-22T07:58:06.689Z,100886.91
2019-03-22T08:00:34.934Z,100880.00
2019-03-22T08:03:03.183Z,100874.84
2019-03-22T08:05:31.428Z,100875.15
2019-03-22T08:07:59.677Z,100869.30
2019-03-22T08:10:27.943Z,100864.77
2019-03-22T08:12:56.172Z,100864.25
2019-03-22T08:15:29.839Z,100870.34
2019-03-22T08:17:58.144Z,100870.02
2019-03-22T08:20:26.648Z,100865.27
2019-03-22T08:22:54.887Z,100871.27
2019-03-22T08:25:23.361Z,100861.38
2019-03-22T08:27:51.612Z,100870.94
2019-03-22T08:30:20.181Z,100854.39
2019-03-22T08:32:50.477Z,100861.18
2019-03-22T08:35:18.384Z,100857.77
2019-03-22T08:37:52.488Z,100863.16
2019-03-22T08:40:16.982Z,100860.85
2019-03-22T08:42:45.274Z,100864.16
2019-03-22T08:45:13.818Z,100862.20
2019-03-22T08:47:42.089Z,100858.15
2019-03-22T08:50:10.768Z,100857.60
2019-03-22T08:52:39.028Z,100852.83
2019-03-22T08:55:07.568Z,100851.69
2019-03-22T08:57:35.812Z,100867.20
2019-03-22T09:00:07.080Z,100874.59
2019-03-22T09:02:35.329Z,100874.60
2019-03-22T09:05:04.609Z,100875.59
2019-03-22T09:07:32.858Z,100874.33
2019-03-22T09:10:01.124Z,100871.74
2019-03-22T09:12:29.359Z,100873.38
2019-03-22T09:14:57.623Z,100878.14
2019-03-22T09:17:25.890Z,100874.37
2019-03-22T09:19:54.412Z,100872.18
2019-03-22T09:22:22.670Z,100868.72
2019-03-22T09:24:51.173Z,100862.24
2019-03-22T09:27:19.669Z,100869.37
2019-03-22T09:29:47.901Z,100868.73
2019-03-22T09:32:16.152Z,100863.88
2019-03-22T09:34:44.412Z,100861.91
2019-03-22T09:37:12.667Z,100861.19
2019-03-22T09:39:41.151Z,100858.97
2019-03-22T09:42:09.666Z,100858.32
2019-03-22T09:44:43.126Z,100855.70
2019-03-22T09:47:08.346Z,100851.81
2019-03-22T09:49:36.575Z,100852.33
2019-03-22T09:52:05.133Z,100848.67
2019-03-22T09:54:33.372Z,100843.91
2019-03-22T09:57:01.969Z,100840.17
2019-03-22T09:59:30.417Z,100843.05
2019-03-22T10:01:58.670Z,100836.64
2019-03-22T10:04:28.225Z,100821.19
2019-03-22T10:06:56.468Z,100825.94
2019-03-22T10:09:24.814Z,100825.24
2019-03-22T10:11:53.267Z,100827.40
2019-03-22T10:14:21.617Z,100823.67
2019-03-22T10:16:49.824Z,100821.89
2019-03-22T10:19:18.317Z,100823.19
2019-03-22T10:21:46.564Z,100825.16
2019-03-22T10:24:14.836Z,100821.34
2019-03-22T10:26:43.314Z,100817.45
2019-03-22T10:29:11.542Z,100823.05
2019-03-22T10:31:39.757Z,100811.72
2019-03-22T10:34:08.045Z,100813.34
2019-03-22T10:36:36.281Z,100816.34
2019-03-22T10:39:07.432Z,100805.53
2019-03-22T10:41:35.745Z,100809.02
2019-03-22T10:44:04.001Z,100804.23
2019-03-22T10:46:32.505Z,100811.05
2019-03-22T10:49:00.792Z,100809.24
2019-03-22T10:51:29.043Z,100806.28
2019-03-22T10:53:57.587Z,100807.91
2019-03-22T10:56:26.142Z,100793.31
2019-03-22T10:58:54.393Z,100799.34
2019-03-22T11:01:22.638Z,100791.70
2019-03-22T11:03:51.401Z,100788.61
2019-03-22T11:06:26.016Z,100793.25
2019-03-22T11:08:49.965Z,100780.53
2019-03-22T11:11:18.398Z,100785.52
2019-03-22T11:13:46.645Z,100782.52
2019-03-22T11:16:14.899Z,100780.27
2019-03-22T11:18:43.145Z,100772.01
2019-03-22T11:21:11.392Z,100775.42
2019-03-22T11:23:39.633Z,100775.31
2019-03-22T11:26:08.103Z,100772.83
2019-03-22T11:28:36.360Z,100772.96
2019-03-22T11:31:05.245Z,100765.25
2019-03-22T11:33:33.650Z,100763.27
2019-03-22T11:36:01.854Z,100759.93
2019-03-22T11:38:30.441Z,100761.73
2019-03-22T11:40:58.683Z,100759.89
2019-03-22T11:43:27.015Z,100763.23
2019-03-22T11:45:55.580Z,100757.86
2019-03-22T11:48:23.827Z,100753.01
2019-03-22T11:50:52.072Z,100753.78
2019-03-22T11:53:21.222Z,100756.09
2019-03-22T11:55:49.709Z,100744.93
2019-03-22T11:58:17.967Z,100749.72
2019-03-22T12:00:46.567Z,100735.41
2019-03-22T12:03:15.154Z,100732.20
2019-03-22T12:05:43.393Z,100740.23
2019-03-22T12:08:11.653Z,100738.68
2019-03-22T12:10:39.893Z,100735.25
2019-03-22T12:13:08.140Z,100738.65
2019-03-22T12:15:36.652Z,100728.29
2019-03-22T12:18:04.889Z,100726.00
2019-03-22T12:20:33.140Z,100725.83
2019-03-22T12:23:01.388Z,100723.25
2019-03-22T12:25:29.621Z,100717.77
2019-03-22T12:27:57.863Z,100717.30
2019-03-22T12:30:26.121Z,100710.53
2019-03-22T12:32:54.361Z,100706.45
2019-03-22T12:35:22.979Z,100707.24
2019-03-22T12:37:51.546Z,100698.73
2019-03-22T12:40:23.308Z,100698.30
2019-03-22T12:42:51.613Z,100694.09
2019-03-22T12:45:26.124Z,100684.82
2019-03-22T12:47:54.434Z,100682.73
2019-03-22T12:50:23.120Z,100674.87
2019-03-22T12:52:51.360Z,100667.47
2019-03-22T12:55:20.273Z,100665.64
2019-03-22T12:57:48.909Z,100668.30
2019-03-22T13:00:26.563Z,100665.11
2019-03-22T13:02:55.497Z,100660.06
2019-03-22T13:05:24.151Z,100656.75
2019-03-22T13:07:52.961Z,100649.66
2019-03-22T13:10:26.337Z,100645.39
2019-03-22T13:12:54.864Z,100642.91
2019-03-22T13:15:23.115Z,100643.91
2019-03-22T13:17:51.353Z,100643.77
2019-03-22T13:20:19.593Z,100636.06
2019-03-22T13:22:48.089Z,100628.72
2019-03-22T13:25:17.075Z,100637.93
2019-03-22T13:27:45.316Z,100595.77
2019-03-22T13:30:32.375Z,100628.25
2019-03-22T13:33:00.628Z,100621.84
2019-03-22T13:35:28.867Z,100610.03
2019-03-22T13:37:57.113Z,100608.37
2019-03-22T13:40:25.578Z,100608.41
2019-03-22T13:42:54.376Z,100601.12
2019-03-22T13:45:22.863Z,100601.59
2019-03-22T13:47:51.112Z,100594.30
2019-03-22T13:50:19.354Z,100590.27
2019-03-22T13:52:47.609Z,100582.91
2019-03-22T13:55:15.859Z,100580.77
2019-03-22T13:57:44.351Z,100568.80
2019-03-22T14:00:16.887Z,100575.24
2019-03-22T14:02:45.411Z,100574.98
2019-03-22T14:05:14.043Z,100569.50
2019-03-22T14:07:42.576Z,100565.09
2019-03-22T14:10:19.682Z,100559.03
2019-03-22T14:12:47.927Z,100555.37
2019-03-22T14:15:16.425Z,100551.52
2019-03-22T14:17:44.680Z,100549.91
2019-03-22T14:20:13.485Z,100543.45
2019-03-22T14:22:41.734Z,100543.02
2019-03-22T14:25:10.042Z,100544.36
2019-03-22T14:27:38.314Z,100538.61
2019-03-22T14:30:07.706Z,100537.16
2019-03-22T14:32:35.952Z,100529.91
2019-03-22T14:35:06.699Z,100534.95
2019-03-22T14:37:34.937Z,100521.71
2019-03-22T14:40:03.859Z,100517.19
2019-03-22T14:42:32.332Z,100518.30
2019-03-22T14:45:00.589Z,100516.52
2019-03-22T14:47:28.836Z,100514.53
2019-03-22T14:49:57.079Z,100511.16
2019-03-22T14:52:25.599Z,100505.98
2019-03-22T14:54:54.190Z,100507.08
2019-03-22T14:57:22.423Z,100498.50
2019-03-22T14:59:58.596Z,100500.77
2019-03-22T15:02:20.858Z,100494.41
2019-03-22T15:04:49.100Z,100492.79
2019-03-22T15:07:20.074Z,100491.48
2019-03-22T15:09:47.748Z,100484.98
2019-03-22T15:12:15.994Z,100483.03
2019-03-22T15:14:51.820Z,100482.23
2019-03-22T15:17:24.418Z,100478.77
2019-03-22T15:20:03.521Z,100477.03
2019-03-22T15:22:49.670Z,100475.73
2019-03-22T15:25:22.733Z,100473.64
2019-03-22T15:28:08.502Z,100471.49
2019-03-22T15:30:56.498Z,100470.28
2019-03-22T15:33:41.531Z,100459.41
2019-03-22T15:36:23.530Z,100461.69
2019-03-22T15:39:02.454Z,100459.53
2019-03-22T15:41:30.818Z,100462.64
2019-03-22T15:43:59.363Z,100457.06
2019-03-22T15:46:27.601Z,100457.16
2019-03-22T15:48:56.064Z,100456.23
2019-03-22T15:51:24.310Z,100451.83
2019-03-22T15:53:52.549Z,100448.48
2019-03-22T15:56:21.017Z,100445.04
2019-03-22T15:58:49.291Z,100450.86
2019-03-22T16:01:17.537Z,100439.55
2019-03-22T16:03:46.083Z,100440.48
2019-03-22T16:06:14.560Z,100435.67
2019-03-22T16:08:43.032Z,100436.56
2019-03-22T16:11:11.532Z,100436.58
2019-03-22T16:13:40.000Z,100431.30
2019-03-22T16:16:08.242Z,100429.56
2019-03-22T16:18:36.488Z,100433.62
2019-03-22T16:21:04.734Z,100428.48
2019-03-22T16:23:33.227Z,100427.70
2019-03-22T16:26:01.464Z,100425.00
2019-03-22T16:28:29.991Z,100422.89
2019-03-22T16:30:58.234Z,100427.67
2019-03-22T16:33:26.721Z,100434.48
2019-03-22T16:35:55.226Z,100421.73
2019-03-22T16:38:23.473Z,100429.08
2019-03-22T16:40:51.995Z,100431.16
2019-03-22T16:43:20.240Z,100423.54
2019-03-22T16:45:48.549Z,100425.11
2019-03-22T16:48:16.810Z,100425.48
2019-03-22T16:50:45.063Z,100431.16
2019-03-22T16:53:13.617Z,100421.16
2019-03-22T16:55:42.092Z,100416.33
2019-03-22T16:58:10.647Z,100421.57
2019-03-22T17:00:38.963Z,100416.37
2019-03-22T17:03:07.208Z,100419.06
2019-03-22T17:05:35.775Z,100420.45
2019-03-22T17:08:04.025Z,100422.66
2019-03-22T17:10:32.262Z,100421.88
2019-03-22T17:13:00.512Z,100421.01
2019-03-22T17:15:28.983Z,100423.28
2019-03-22T17:17:57.233Z,100419.00
2019-03-22T17:20:25.474Z,100425.12
2019-03-22T17:22:53.949Z,100425.56
2019-03-22T17:25:22.193Z,100423.02
2019-03-22T17:27:50.441Z,100422.66
2019-03-22T17:30:19.222Z,100425.70
2019-03-22T17:32:47.456Z,100427.50
2019-03-22T17:35:15.711Z,100426.23
2019-03-22T17:37:44.185Z,100415.86
2019-03-22T17:40:12.503Z,100430.15
2019-03-22T17:42:40.976Z,100435.00
2019-03-22T17:45:11.565Z,100429.53
2019-03-22T17:47:39.809Z,100430.06
2019-03-22T17:50:10.297Z,100428.46
2019-03-22T17:52:38.773Z,100429.83
2019-03-22T17:55:07.027Z,100436.03
2019-03-22T17:57:35.568Z,100433.92
2019-03-22T18:00:06.197Z,100435.20
2019-03-22T18:02:34.664Z,100437.82
2019-03-22T18:05:03.417Z,100443.98
2019-03-22T18:07:31.654Z,100437.48
2019-03-22T18:09:59.942Z,100445.69
2019-03-22T18:12:28.180Z,100450.48
2019-03-22T18:14:56.894Z,100447.00
2019-03-22T18:17:25.425Z,100444.22
2019-03-22T18:19:53.669Z,100448.85
2019-03-22T18:22:21.913Z,100453.89
2019-03-22T18:24:50.506Z,100453.94
2019-03-22T18:27:18.991Z,100453.50
2019-03-22T18:29:47.238Z,100452.14
2019-03-22T18:32:15.476Z,100451.63
2019-03-22T18:34:43.718Z,100461.94
2019-03-22T18:37:11.953Z,100452.36
2019-03-22T18:39:40.208Z,100456.98
2019-03-22T18:42:08.424Z,100462.09
2019-03-22T18:44:36.664Z,100464.75
2019-03-22T18:47:04.902Z,100468.50
2019-03-22T18:49:33.150Z,100474.08
2019-03-22T18:52:01.407Z,100465.44
2019-03-22T18:54:29.647Z,100469.34
2019-03-22T18:56:57.885Z,100470.30
2019-03-22T18:59:26.366Z,100469.11
2019-03-22T19:01:54.605Z,100474.33
2019-03-22T19:04:22.850Z,100472.66
2019-03-22T19:06:51.188Z,100472.72
2019-03-22T19:09:19.440Z,100469.67
2019-03-22T19:11:47.977Z,100474.48
2019-03-22T19:14:16.560Z,100471.91
2019-03-22T19:16:44.803Z,100472.27
2019-03-22T19:19:13.277Z,100470.27
2019-03-22T19:21:41.516Z,100464.33
2019-03-22T19:24:09.768Z,100468.36
2019-03-22T19:26:38.036Z,100465.09
2019-03-22T19:29:06.509Z,100465.25
2019-03-22T19:31:34.977Z,100457.59
2019-03-22T19:34:03.230Z,100458.08
2019-03-22T19:36:31.482Z,100460.89
2019-03-22T19:39:00.053Z,100460.12
2019-03-22T19:41:28.565Z,100463.66
2019-03-22T19:43:56.776Z,100458.57
2019-03-22T19:46:25.016Z,100460.53
2019-03-22T19:48:53.267Z,100457.63
2019-03-22T19:51:21.504Z,100456.00
2019-03-22T19:53:49.750Z,100450.94
2019-03-22T19:56:17.992Z,100449.72
2019-03-22T19:58:46.460Z,100452.96
2019-03-22T20:01:14.693Z,100450.93
2019-03-22T20:03:42.943Z,100450.59
2019-03-22T20:06:11.173Z,100457.20
2019-03-22T20:08:39.654Z,100456.95
2019-03-22T20:11:08.122Z,100465.80
2019-03-22T20:13:36.367Z,100457.00
2019-03-22T20:16:04.919Z,100453.31
2019-03-22T20:18:33.168Z,100457.00
2019-03-22T20:21:01.407Z,100459.80
2019-03-22T20:23:29.651Z,100451.77
2019-03-22T20:25:58.242Z,100452.48
2019-03-22T20:28:26.832Z,100462.52
2019-03-22T20:30:55.082Z,100463.94
2019-03-22T20:33:23.554Z,100454.12
2019-03-22T20:35:52.076Z,100455.53
2019-03-22T20:38:20.559Z,100456.55
2019-03-22T20:40:48.817Z,100455.92
2019-03-22T20:43:17.057Z,100450.20
2019-03-22T20:45:45.586Z,100456.84
2019-03-22T20:48:13.835Z,100462.61
2019-03-22T20:50:42.321Z,100464.86
2019-03-22T20:53:10.781Z,100458.20
2019-03-22T20:55:39.264Z,100463.08
2019-03-22T20:58:07.500Z,100458.19
2019-03-22T21:00:36.016Z,100460.58
2019-03-22T21:03:04.477Z,100452.67
2019-03-22T21:05:32.722Z,100461.59
2019-03-22T21:08:00.957Z,100458.73
2019-03-22T21:10:29.201Z,100454.73
2019-03-22T21:12:57.432Z,100456.23
2019-03-22T21:15:25.696Z,100454.85
2019-03-22T21:17:53.959Z,100457.73
2019-03-22T21:20:22.458Z,100449.12
2019-03-22T21:22:50.687Z,100444.78
2019-03-22T21:25:18.930Z,100446.95
2019-03-22T21:27:47.390Z,100444.78
2019-03-22T21:30:16.109Z,100445.97
2019-03-22T21:32:45.388Z,100445.88
2019-03-22T21:35:22.377Z,100438.47
2019-03-22T21:37:44.023Z,100446.92
2019-03-22T21:40:12.436Z,100439.72
2019-03-22T21:42:40.687Z,100438.55
2019-03-22T21:45:09.987Z,100441.27
2019-03-22T21:47:38.453Z,100441.39
2019-03-22T21:50:08.247Z,100438.44
2019-03-22T21:52:36.481Z,100431.09
2019-03-22T21:55:06.284Z,100428.72
2019-03-22T21:57:34.511Z,100427.25
2019-03-22T22:00:03.124Z,100431.84
2019-03-22T22:02:31.352Z,100430.06
2019-03-22T22:04:59.603Z,100424.73
2019-03-22T22:07:27.844Z,100426.22
2019-03-22T22:09:56.089Z,100423.76
2019-03-22T22:12:24.565Z,100421.48
2019-03-22T22:14:53.024Z,100424.79
2019-03-22T22:17:21.256Z,100422.72
2019-03-22T22:19:49.496Z,100423.02
2019-03-22T22:22:17.742Z,100425.30
2019-03-22T22:24:46.212Z,100423.36
2019-03-22T22:27:14.489Z,100419.22
2019-03-22T22:29:42.929Z,100417.64
2019-03-22T22:32:11.389Z,100422.03
2019-03-22T22:34:39.632Z,100416.70
2019-03-22T22:37:08.093Z,100415.22
2019-03-22T22:39:36.583Z,100416.80
2019-03-22T22:42:04.889Z,100416.34
2019-03-22T22:44:33.368Z,100414.46
2019-03-22T22:47:01.600Z,100423.25
2019-03-22T22:49:29.840Z,100428.88
2019-03-22T22:51:58.295Z,100424.75
2019-03-22T22:54:26.541Z,100428.41
2019-03-22T22:56:54.994Z,100423.77
2019-03-22T22:59:23.464Z,100413.70
2019-03-22T23:01:51.730Z,100417.55
2019-03-22T23:04:19.978Z,100416.16
2019-03-22T23:06:48.223Z,100419.42
2019-03-22T23:09:16.687Z,100422.21
2019-03-22T23:11:45.190Z,100415.39
2019-03-22T23:14:13.410Z,100407.27
2019-03-22T23:16:41.891Z,100414.58
2019-03-22T23:19:10.113Z,100412.11
2019-03-22T23:21:38.353Z,100406.17
2019-03-22T23:24:06.585Z,100412.21
2019-03-22T23:26:34.824Z,100412.01
2019-03-22T23:29:03.068Z,100412.69
2019-03-22T23:31:31.306Z,100412.59
2019-03-22T23:33:59.542Z,100411.14
2019-03-22T23:36:27.779Z,100409.94
2019-03-22T23:38:56.251Z,100413.08
2019-03-22T23:41:24.501Z,100400.77
2019-03-22T23:43:52.740Z,100409.74
2019-03-22T23:46:21.203Z,100416.44
2019-03-22T23:48:49.430Z,100416.63
2019-03-22T23:51:17.674Z,100413.56
2019-03-22T23:53:46.143Z,100409.22
2019-03-22T23:56:14.599Z,100409.41
2019-03-22T23:58:42.892Z,100410.87
